Time;durP1;ratioP1;P1;durP2;ratioP2;P2;SDS_P1;SDS_P2;PMS_P1;PMS_P2;Temp;Humidity;BMP_temperature;BMP_pressure;BME280_temperature;BME280_humidity;BME280_pressure;Samples;Min_cycle;Max_cycle;Signal;HPM_P1;HPM_P2
2023/10/03 00:00:09;;;;;;;11.02;3.92;;;;;;;16.02;100.00;100792.63;6028637;28;20034;-64
2023/10/03 00:03:08;;;;;;;10.43;3.92;;;;;;;15.99;100.00;100789.44;6029161;28;20477;-64
2023/10/03 00:06:05;;;;;;;11.65;4.45;;;;;;;15.83;100.00;100768.19;6028693;28;20042;-64
2023/10/03 00:09:01;;;;;;;12.05;4.18;;;;;;;15.76;100.00;100756.53;6028674;28;20492;-64
2023/10/03 00:11:56;;;;;;;11.43;4.57;;;;;;;15.70;100.00;100751.91;6034374;28;20024;-63
2023/10/03 00:14:52;;;;;;;12.77;4.77;;;;;;;15.76;100.00;100759.22;6029158;28;20477;-64
2023/10/03 00:17:47;;;;;;;12.65;4.40;;;;;;;15.79;100.00;100750.84;6026755;28;20019;-64
2023/10/03 00:20:43;;;;;;;12.02;4.00;;;;;;;15.83;100.00;100752.13;6025066;28;20023;-64
2023/10/03 00:23:38;;;;;;;14.43;4.40;;;;;;;15.86;100.00;100743.75;6028528;28;20036;-64
2023/10/03 00:26:34;;;;;;;8.65;4.00;;;;;;;15.88;100.00;100741.72;6028194;28;20265;-64
2023/10/03 00:29:29;;;;;;;9.93;4.13;;;;;;;15.91;100.00;100728.00;6028097;28;20632;-64
2023/10/03 00:32:25;;;;;;;9.38;3.72;;;;;;;15.94;100.00;100716.94;6028745;28;20030;-64
2023/10/03 00:35:20;;;;;;;12.30;4.10;;;;;;;16.03;100.00;100726.56;6028066;28;20099;-63
2023/10/03 00:38:16;;;;;;;11.40;4.70;;;;;;;16.02;100.00;100703.50;6027949;28;20030;-64
2023/10/03 00:41:12;;;;;;;9.03;3.77;;;;;;;16.15;100.00;100713.56;6025120;28;20073;-64
2023/10/03 00:44:10;;;;;;;12.70;4.85;;;;;;;16.13;100.00;100708.41;6028508;28;20022;-64
2023/10/03 00:47:08;;;;;;;16.80;5.72;;;;;;;15.99;100.00;100672.59;6028216;28;20022;-64
2023/10/03 00:50:06;;;;;;;22.42;8.30;;;;;;;16.16;100.00;100688.47;6033100;28;20494;-64
2023/10/03 00:53:09;;;;;;;9.88;4.53;;;;;;;16.04;100.00;100683.56;6027382;28;20030;-64
2023/10/03 00:56:08;;;;;;;12.50;5.13;;;;;;;15.92;100.00;100657.47;6027612;28;20029;-64
2023/10/03 00:59:05;;;;;;;12.60;3.95;;;;;;;15.82;100.00;100648.84;6027667;28;20429;-64
2023/10/03 01:02:06;;;;;;;13.23;4.47;;;;;;;15.76;100.00;100639.69;6027889;28;20109;-64
2023/10/03 01:05:03;;;;;;;10.00;4.03;;;;;;;15.83;100.00;100650.50;6027559;28;20037;-64
2023/10/03 01:07:59;;;;;;;12.63;4.47;;;;;;;15.86;100.00;100639.44;6027275;28;20030;-64
2023/10/03 01:10:55;;;;;;;11.38;4.07;;;;;;;15.84;100.00;100636.13;6027903;28;20112;-64
2023/10/03 01:14:00;;;;;;;10.15;3.88;;;;;;;15.85;100.00;100630.59;6027746;28;20537;-64
2023/10/03 01:16:56;;;;;;;11.18;3.90;;;;;;;15.78;100.00;100610.97;6027336;28;20026;-63
2023/10/03 01:19:52;;;;;;;12.38;4.65;;;;;;;15.81;100.00;100615.09;6022732;28;20383;-63
2023/10/03 01:22:51;;;;;;;11.23;4.15;;;;;;;15.89;100.00;100617.69;6026920;28;20535;-64
2023/10/03 01:25:47;;;;;;;11.07;4.05;;;;;;;15.85;100.00;100601.19;6026630;28;20055;-64
2023/10/03 01:28:42;;;;;;;10.82;4.00;;;;;;;15.91;100.00;100604.97;6022535;28;20395;-64
2023/10/03 01:31:39;;;;;;;13.10;4.13;;;;;;;16.01;100.00;100606.34;6027211;28;20057;-64
2023/10/03 01:34:35;;;;;;;11.73;3.97;;;;;;;15.98;100.00;100587.19;6026900;28;20034;-64
2023/10/03 01:37:30;;;;;;;11.65;4.10;;;;;;;16.19;100.00;100597.97;6026340;28;20030;-64
2023/10/03 01:40:26;;;;;;;11.73;4.60;;;;;;;16.23;100.00;100582.34;6026133;28;20041;-64
2023/10/03 01:43:21;;;;;;;12.63;4.57;;;;;;;16.41;100.00;100589.00;6027145;28;20030;-64
2023/10/03 01:46:17;;;;;;;12.03;4.90;;;;;;;16.39;100.00;100566.09;6026598;28;20046;-64
2023/10/03 01:49:14;;;;;;;11.90;4.22;;;;;;;16.40;100.00;100552.53;6026499;28;20026;-63
2023/10/03 01:52:09;;;;;;;15.18;5.05;;;;;;;16.70;100.00;100557.84;6026434;28;20441;-64
2023/10/03 01:55:05;;;;;;;14.88;4.85;;;;;;;16.59;100.00;100540.44;6026822;28;20033;-63
2023/10/03 01:58:01;;;;;;;13.68;5.50;;;;;;;16.55;100.00;100525.78;6026031;28;20030;-63
2023/10/03 02:00:56;;;;;;;13.93;5.23;;;;;;;16.60;100.00;100516.13;6026447;28;20033;-64
2023/10/03 02:03:52;;;;;;;16.20;6.03;;;;;;;16.74;100.00;100519.78;6025634;28;20034;-63
2023/10/03 02:06:49;;;;;;;17.17;5.57;;;;;;;16.72;100.00;100519.16;6023028;28;20022;-64
2023/10/03 02:09:44;;;;;;;18.55;6.05;;;;;;;16.94;100.00;100507.41;6026043;28;20034;-63
2023/10/03 02:12:48;;;;;;;17.17;5.90;;;;;;;17.13;100.00;100513.97;6026263;28;20097;-63
2023/10/03 02:15:46;;;;;;;14.70;5.32;;;;;;;17.23;100.00;100509.94;6026302;28;20392;-64
2023/10/03 02:18:42;;;;;;;13.50;5.25;;;;;;;17.25;100.00;100507.91;6019689;28;21090;-63
2023/10/03 02:21:41;;;;;;;14.57;4.95;;;;;;;17.33;100.00;100514.13;6026074;28;20034;-64
2023/10/03 02:24:37;;;;;;;14.05;4.25;;;;;;;17.18;100.00;100482.06;6025933;28;20397;-63
2023/10/03 02:27:33;;;;;;;11.45;4.22;;;;;;;17.15;100.00;100482.44;6025298;28;20253;-63
2023/10/03 02:30:29;;;;;;;12.02;4.50;;;;;;;17.27;100.00;100480.91;6017769;28;20030;-63
2023/10/03 02:33:24;;;;;;;14.05;4.72;;;;;;;17.28;100.00;100479.88;6025681;28;20497;-63
2023/10/03 02:36:19;;;;;;;12.57;4.43;;;;;;;17.36;99.42;100474.38;6025776;28;20128;-63
2023/10/03 02:39:19;;;;;;;13.73;4.50;;;;;;;17.34;98.57;100444.22;6025595;28;20346;-64
2023/10/03 02:42:15;;;;;;;12.30;4.85;;;;;;;17.34;98.39;100460.31;6025129;28;20602;-64
2023/10/03 02:45:14;;;;;;;16.40;4.90;;;;;;;17.32;98.35;100448.13;6026089;28;20498;-63
2023/10/03 02:48:14;;;;;;;12.30;4.32;;;;;;;17.30;97.94;100447.50;6023274;28;20258;-63
2023/10/03 02:51:12;;;;;;;13.48;4.35;;;;;;;17.27;98.25;100436.16;6021938;28;20050;-64
2023/10/03 02:54:09;;;;;;;15.18;5.43;;;;;;;17.28;97.15;100434.31;6024017;28;20057;-64
2023/10/03 02:57:04;;;;;;;13.40;5.25;;;;;;;17.38;95.53;100416.03;6019605;28;20488;-63
2023/10/03 02:59:59;;;;;;;15.80;4.83;;;;;;;17.42;94.83;100414.59;6025370;28;20038;-63
2023/10/03 03:02:56;;;;;;;15.87;5.67;;;;;;;17.48;94.02;100412.97;6025856;28;20030;-63
2023/10/03 03:05:51;;;;;;;13.77;5.03;;;;;;;17.46;94.12;100415.88;6025007;28;20271;-64
2023/10/03 03:08:46;;;;;;;14.30;5.20;;;;;;;17.37;94.05;100400.94;6020778;28;20037;-63
2023/10/03 03:11:48;;;;;;;13.93;4.37;;;;;;;17.51;93.52;100416.09;6025504;28;20045;-63
2023/10/03 03:14:44;;;;;;;13.88;5.03;;;;;;;17.52;93.03;100407.03;6017983;28;20045;-63
2023/10/03 03:17:40;;;;;;;15.77;4.82;;;;;;;17.54;92.42;100396.97;6024834;28;20034;-64
2023/10/03 03:20:42;;;;;;;13.95;4.82;;;;;;;17.62;91.45;100388.75;6029818;28;20038;-64
2023/10/03 03:23:42;;;;;;;15.05;5.38;;;;;;;17.71;90.19;100376.00;6029075;28;20038;-64
2023/10/03 03:26:39;;;;;;;17.05;5.30;;;;;;;17.83;88.79;100359.13;6030057;28;20030;-63
2023/10/03 03:29:47;;;;;;;17.40;5.65;;;;;;;17.95;87.49;100353.16;6029586;28;20043;-63
2023/10/03 03:32:43;;;;;;;15.60;6.45;;;;;;;18.15;85.61;100346.00;6030155;28;20045;-63
2023/10/03 03:35:38;;;;;;;18.10;5.45;;;;;;;18.32;83.93;100331.13;6029409;28;20035;-63
2023/10/03 03:38:33;;;;;;;14.70;5.90;;;;;;;18.25;83.33;100314.19;6028452;28;20091;-64
2023/10/03 03:41:29;;;;;;;20.13;6.30;;;;;;;18.30;82.77;100307.19;6030369;28;20031;-64
2023/10/03 03:44:25;;;;;;;17.63;5.70;;;;;;;18.47;82.09;100323.72;6031282;28;20269;-63
2023/10/03 03:47:21;;;;;;;20.48;6.65;;;;;;;18.39;81.71;100300.59;6029006;28;20026;-64
2023/10/03 03:50:17;;;;;;;14.30;4.97;;;;;;;18.39;81.43;100287.16;6044572;28;20097;-64
2023/10/03 03:53:12;;;;;;;16.92;6.00;;;;;;;18.44;81.44;100292.72;6028772;28;20049;-64
2023/10/03 03:56:08;;;;;;;17.03;5.87;;;;;;;18.52;80.88;100288.19;6029076;28;20046;-64
2023/10/03 03:59:03;;;;;;;16.20;5.30;;;;;;;18.49;80.98;100286.75;6028976;28;20456;-64
2023/10/03 04:02:00;;;;;;;15.97;5.83;;;;;;;18.46;81.30;100289.81;6025386;28;20084;-63
2023/10/03 04:04:56;;;;;;;21.42;6.72;;;;;;;18.32;81.37;100286.31;6017294;28;20030;-63
2023/10/03 04:07:53;;;;;;;17.55;6.50;;;;;;;18.33;81.74;100276.41;6028567;28;20109;-64
2023/10/03 04:10:49;;;;;;;17.67;5.70;;;;;;;18.38;82.02;100303.47;6029178;28;20035;-63
2023/10/03 04:13:53;;;;;;;19.30;6.60;;;;;;;18.37;82.09;100301.81;6028221;28;20548;-63
2023/10/03 04:16:48;;;;;;;19.20;6.30;;;;;;;18.32;82.25;100282.81;6031090;28;20062;-63
2023/10/03 04:19:45;;;;;;;22.47;7.23;;;;;;;18.31;82.20;100275.81;6028084;28;20034;-64
2023/10/03 04:22:41;;;;;;;17.63;5.57;;;;;;;18.38;82.56;100287.34;6028772;28;20088;-63
2023/10/03 04:25:39;;;;;;;17.30;6.30;;;;;;;18.42;82.31;100286.75;6027858;28;20481;-63
2023/10/03 04:28:34;;;;;;;17.33;5.95;;;;;;;18.33;82.30;100263.00;6026439;28;20038;-63
2023/10/03 04:31:30;;;;;;;17.20;5.33;;;;;;;18.40;81.83;100242.31;6028892;28;20034;-64
2023/10/03 04:34:25;;;;;;;19.63;6.60;;;;;;;18.50;80.97;100215.91;6028194;28;20022;-64
2023/10/03 04:37:23;;;;;;;22.30;7.10;;;;;;;18.55;80.76;100218.78;6028104;28;20041;-64
2023/10/03 04:40:22;;;;;;;21.45;6.63;;;;;;;18.61;80.43;100223.34;6028698;28;20030;-63
2023/10/03 04:43:17;;;;;;;21.45;7.10;;;;;;;18.77;79.80;100232.78;6027755;28;20042;-63
2023/10/03 04:46:13;;;;;;;19.83;6.30;;;;;;;18.69;80.73;100233.03;6027737;28;20105;-63
2023/10/03 04:49:08;;;;;;;19.13;6.85;;;;;;;18.65;80.53;100213.81;6032574;28;20080;-63
2023/10/03 04:52:07;;;;;;;21.93;6.17;;;;;;;18.65;80.56;100218.34;6031439;28;20049;-63
2023/10/03 04:55:03;;;;;;;16.20;6.32;;;;;;;18.53;80.98;100210.13;6028202;28;20030;-63
2023/10/03 04:57:58;;;;;;;21.83;6.72;;;;;;;18.63;80.86;100234.69;6026615;28;20022;-64
2023/10/03 05:00:54;;;;;;;16.65;5.82;;;;;;;18.51;81.26;100212.19;6027817;28;20030;-63
2023/10/03 05:03:50;;;;;;;20.03;6.83;;;;;;;18.59;81.13;100222.69;6027870;28;20038;-63
2023/10/03 05:06:47;;;;;;;16.25;6.70;;;;;;;18.52;81.66;100208.47;6022948;28;20273;-64
2023/10/03 05:09:42;;;;;;;21.30;7.50;;;;;;;18.53;81.31;100180.59;6027650;28;20041;-63
2023/10/03 05:12:38;;;;;;;20.13;7.20;;;;;;;18.62;80.79;100165.03;6027561;28;20470;-63
2023/10/03 05:15:33;;;;;;;22.42;6.65;;;;;;;18.77;79.80;100185.25;6027246;28;20030;-63
2023/10/03 05:18:30;;;;;;;22.77;7.53;;;;;;;18.77;79.97;100177.22;6027215;28;20100;-64
2023/10/03 05:21:25;;;;;;;17.42;6.53;;;;;;;18.74;79.93;100171.41;6027395;28;20273;-63
2023/10/03 05:24:21;;;;;;;19.13;7.00;;;;;;;18.74;79.88;100169.56;6027523;28;20492;-64
2023/10/03 05:27:16;;;;;;;21.27;6.85;;;;;;;18.69;79.85;100169.38;6026700;28;20033;-64
2023/10/03 05:30:14;;;;;;;21.75;6.72;;;;;;;18.70;80.42;100176.38;6027050;28;20037;-64
2023/10/03 05:33:10;;;;;;;20.90;7.20;;;;;;;18.77;80.38;100176.38;6027130;28;20385;-63
2023/10/03 05:36:05;;;;;;;23.63;6.80;;;;;;;18.75;80.32;100181.94;6026562;28;20037;-63
2023/10/03 05:39:01;;;;;;;20.08;6.28;;;;;;;18.76;80.43;100172.03;6026363;28;20030;-64
2023/10/03 05:41:57;;;;;;;19.23;6.30;;;;;;;18.73;79.80;100167.91;6024159;28;20042;-63
2023/10/03 05:44:53;;;;;;;16.40;6.22;;;;;;;18.79;80.51;100171.59;6021474;28;20046;-63
2023/10/03 05:47:48;;;;;;;21.05;6.82;;;;;;;18.77;80.18;100162.94;6022271;28;20747;-64
2023/10/03 05:50:44;;;;;;;18.50;6.40;;;;;;;18.90;79.95;100174.47;6027154;28;20061;-64
2023/10/03 05:53:42;;;;;;;22.00;6.38;;;;;;;18.92;79.87;100180.44;6026649;28;20042;-64
2023/10/03 05:56:37;;;;;;;20.23;6.70;;;;;;;18.86;79.41;100151.72;6023690;28;20088;-64
2023/10/03 05:59:32;;;;;;;20.80;6.23;;;;;;;19.05;79.37;100178.75;6026298;28;20034;-64
2023/10/03 06:02:27;;;;;;;16.77;6.63;;;;;;;19.09;78.86;100161.13;6026561;28;20382;-63
2023/10/03 06:05:23;;;;;;;20.13;6.80;;;;;;;19.01;78.69;100149.59;6026615;28;20117;-64
2023/10/03 06:08:18;;;;;;;18.47;6.77;;;;;;;19.07;78.60;100165.91;6025334;28;20026;-64
2023/10/03 06:11:14;;;;;;;19.25;6.57;;;;;;;19.18;78.34;100176.81;6020114;28;20034;-64
2023/10/03 06:14:09;;;;;;;23.40;6.60;;;;;;;19.22;77.63;100179.88;6023317;28;20046;-63
2023/10/03 06:17:04;;;;;;;18.70;6.13;;;;;;;19.24;78.18;100180.50;6025812;28;20026;-63
2023/10/03 06:20:00;;;;;;;21.87;6.87;;;;;;;19.19;78.33;100164.19;6025689;28;20034;-64
2023/10/03 06:22:55;;;;;;;23.87;7.93;;;;;;;19.15;78.37;100161.13;6025794;28;20038;-63
2023/10/03 06:25:51;;;;;;;20.17;7.73;;;;;;;19.19;78.85;100173.06;6014047;28;20057;-63
2023/10/03 06:28:49;;;;;;;21.88;7.80;;;;;;;19.13;79.42;100176.63;6019873;28;20042;-64
2023/10/03 06:31:45;;;;;;;24.45;6.85;;;;;;;19.10;79.24;100163.63;6025898;28;20030;-63
2023/10/03 06:34:40;;;;;;;18.52;6.47;;;;;;;19.24;79.43;100186.69;6017618;28;20046;-63
2023/10/03 06:37:37;;;;;;;18.73;6.30;;;;;;;19.23;79.23;100184.22;6017634;28;20034;-63
2023/10/03 06:40:33;;;;;;;17.63;6.32;;;;;;;19.23;79.57;100201.19;6022808;28;20398;-64
2023/10/03 06:43:28;;;;;;;19.43;7.37;;;;;;;19.21;80.16;100178.25;6025647;28;20042;-64
2023/10/03 06:46:23;;;;;;;19.23;7.30;;;;;;;19.18;79.62;100176.81;6025056;28;20030;-63
2023/10/03 06:49:22;;;;;;;22.40;7.13;;;;;;;19.21;79.94;100170.19;6026116;28;20034;-65
2023/10/03 06:52:17;;;;;;;17.83;6.68;;;;;;;19.29;79.18;100180.69;6019072;28;20053;-64
2023/10/03 06:55:15;;;;;;;22.07;6.60;;;;;;;19.46;78.72;100190.72;6020480;28;20039;-64
2023/10/03 06:58:11;;;;;;;18.95;6.80;;;;;;;19.41;78.29;100181.66;6024244;28;20293;-64
2023/10/03 07:01:08;;;;;;;23.83;7.35;;;;;;;19.48;79.34;100206.66;6019795;28;20109;-65
2023/10/03 07:04:07;;;;;;;18.90;6.40;;;;;;;19.41;78.53;100178.97;6024587;28;20053;-64
2023/10/03 07:07:03;;;;;;;21.33;6.97;;;;;;;19.50;78.89;100209.97;6011004;28;20545;-64
2023/10/03 07:09:59;;;;;;;18.70;7.20;;;;;;;19.59;78.22;100206.78;6020492;28;20068;-65
2023/10/03 07:12:55;;;;;;;22.27;6.72;;;;;;;19.55;78.54;100191.31;6024941;28;20093;-64
2023/10/03 07:15:50;;;;;;;19.73;6.45;;;;;;;19.70;78.08;100199.91;6018892;28;20116;-64
2023/10/03 07:18:46;;;;;;;17.13;6.10;;;;;;;19.77;78.05;100200.69;6013504;28;20537;-64
2023/10/03 07:21:42;;;;;;;20.83;6.88;;;;;;;19.74;77.85;100184.97;6020338;28;20282;-64
2023/10/03 07:24:39;;;;;;;18.90;6.50;;;;;;;19.74;78.56;100193.03;6027665;28;20402;-64
2023/10/03 07:27:36;;;;;;;18.17;6.10;;;;;;;19.91;78.21;100217.56;6018495;28;20037;-64
2023/10/03 07:30:33;;;;;;;18.27;6.07;;;;;;;19.89;77.80;100198.13;6011285;28;20037;-64
2023/10/03 07:33:28;;;;;;;16.63;6.63;;;;;;;19.90;78.25;100187.13;6018399;28;20125;-64
2023/10/03 07:36:23;;;;;;;16.37;6.73;;;;;;;20.02;78.14;100196.13;6022506;28;20057;-64
2023/10/03 07:39:20;;;;;;;17.25;6.40;;;;;;;20.08;76.73;100194.44;6018272;28;20473;-65
2023/10/03 07:42:17;;;;;;;22.00;7.22;;;;;;;20.24;77.42;100219.97;6018693;28;20081;-64
2023/10/03 07:45:13;;;;;;;20.63;6.70;;;;;;;20.12;77.19;100206.41;6023743;28;20030;-64
2023/10/03 07:48:10;;;;;;;20.45;6.85;;;;;;;20.13;77.40;100203.50;6022196;28;20042;-64
2023/10/03 07:51:05;;;;;;;17.60;6.28;;;;;;;20.24;77.36;100210.06;6023283;28;20478;-64
2023/10/03 07:54:01;;;;;;;20.17;6.70;;;;;;;20.25;77.70;100205.50;6022321;28;20073;-64
2023/10/03 07:56:56;;;;;;;17.38;6.45;;;;;;;20.38;77.32;100211.59;6022933;28;20112;-64
2023/10/03 07:59:52;;;;;;;17.50;6.27;;;;;;;20.36;77.57;100208.28;6022593;28;20034;-64
2023/10/03 08:02:49;;;;;;;19.42;6.10;;;;;;;20.49;77.41;100220.81;6018160;28;20031;-64
2023/10/03 08:05:45;;;;;;;19.73;6.53;;;;;;;20.46;77.33;100210.47;6020133;28;20042;-65
2023/10/03 08:08:41;;;;;;;17.67;6.68;;;;;;;20.57;77.38;100226.72;6022146;28;20069;-64
2023/10/03 08:11:36;;;;;;;17.98;6.30;;;;;;;20.61;77.09;100222.53;6027220;28;20038;-64
2023/10/03 08:14:34;;;;;;;17.90;6.20;;;;;;;20.60;78.25;100230.84;6024744;28;20050;-64
2023/10/03 08:17:31;;;;;;;17.60;6.18;;;;;;;20.69;77.00;100221.41;6026518;28;20038;-65
2023/10/03 08:20:29;;;;;;;16.83;6.45;;;;;;;20.71;77.10;100230.09;6026002;28;20070;-64
2023/10/03 08:23:25;;;;;;;16.33;6.85;;;;;;;20.70;77.60;100236.56;6026690;28;20034;-64
2023/10/03 08:26:21;;;;;;;16.53;6.33;;;;;;;20.64;78.31;100240.13;6026262;28;20117;-64
2023/10/03 08:29:23;;;;;;;18.75;6.00;;;;;;;20.72;78.55;100250.63;6026142;28;20018;-64
2023/10/03 08:32:19;;;;;;;18.88;6.35;;;;;;;20.80;77.74;100239.53;6025760;28;20085;-65
2023/10/03 08:35:14;;;;;;;15.45;5.35;;;;;;;20.86;78.02;100230.56;6026837;28;20050;-64
2023/10/03 08:38:13;;;;;;;15.48;6.32;;;;;;;20.69;78.49;100226.81;6025617;28;20061;-64
2023/10/03 08:41:31;;;;;;;14.48;6.00;;;;;;;20.87;78.29;100221.44;6026518;28;20382;-64
2023/10/03 08:44:31;;;;;;;17.50;5.85;;;;;;;20.87;78.11;100264.56;6019809;28;20474;-65
2023/10/03 08:47:33;;;;;;;19.15;6.40;;;;;;;20.88;78.28;100260.81;6019073;28;20082;-64
2023/10/03 08:50:35;;;;;;;18.48;6.30;;;;;;;20.87;78.77;100277.22;6027111;28;20505;-64
2023/10/03 08:53:31;;;;;;;15.55;6.05;;;;;;;20.85;78.81;100261.25;6023172;28;20057;-65
2023/10/03 08:56:28;;;;;;;21.02;7.10;;;;;;;20.90;78.67;100250.63;6019618;28;20097;-65
2023/10/03 08:59:23;;;;;;;16.08;6.25;;;;;;;20.94;78.67;100243.75;6026579;28;20038;-65
2023/10/03 09:02:24;;;;;;;19.23;6.10;;;;;;;20.92;78.88;100251.25;6028164;28;20041;-65
2023/10/03 09:05:20;;;;;;;28.88;6.53;;;;;;;20.95;79.16;100245.41;6014092;28;20289;-65
2023/10/03 09:08:17;;;;;;;18.15;6.68;;;;;;;20.99;80.19;100245.75;6024898;28;20121;-65
2023/10/03 09:11:13;;;;;;;15.02;5.88;;;;;;;21.13;79.91;100242.72;6018363;28;20036;-64
2023/10/03 09:14:22;;;;;;;14.73;6.35;;;;;;;21.38;78.85;100249.88;6026779;28;20120;-65
2023/10/03 09:17:23;;;;;;;18.55;6.20;;;;;;;21.34;79.15;100257.59;6027127;28;20035;-65
2023/10/03 09:20:20;;;;;;;18.95;6.75;;;;;;;21.51;78.02;100255.09;6025389;28;20026;-65
2023/10/03 09:23:17;;;;;;;16.45;5.57;;;;;;;21.55;78.41;100269.78;6022800;28;20477;-64
2023/10/03 09:26:15;;;;;;;16.27;5.82;;;;;;;21.51;78.29;100255.94;6022034;28;20041;-64
2023/10/03 09:29:10;;;;;;;15.65;5.82;;;;;;;21.62;78.49;100268.66;6011310;28;20038;-64
2023/10/03 09:32:17;;;;;;;12.53;5.27;;;;;;;21.70;78.08;100262.94;6020990;28;20042;-64
2023/10/03 09:35:12;;;;;;;13.50;5.85;;;;;;;21.61;79.22;100271.56;6011622;28;20037;-64
2023/10/03 09:38:10;;;;;;;16.67;5.70;;;;;;;21.56;78.64;100269.56;6011779;28;20482;-64
2023/10/03 09:41:06;;;;;;;15.35;5.53;;;;;;;21.51;79.35;100255.94;6015393;28;20038;-64
2023/10/03 09:44:05;;;;;;;14.20;5.40;;;;;;;21.51;79.18;100272.13;6019980;28;20079;-64
2023/10/03 09:47:04;;;;;;;13.38;5.05;;;;;;;21.51;79.79;100272.13;6020629;28;20104;-64
2023/10/03 09:50:08;;;;;;;15.23;5.60;;;;;;;21.42;80.08;100273.47;6024001;28;20030;-64
2023/10/03 09:53:06;;;;;;;16.80;6.45;;;;;;;21.24;81.42;100279.72;6014480;28;20033;-64
2023/10/03 09:56:08;;;;;;;13.63;5.28;;;;;;;21.20;81.03;100259.63;6020909;28;20596;-65
2023/10/03 09:59:05;;;;;;;14.95;6.00;;;;;;;21.46;80.96;100277.38;6021266;28;20026;-65
2023/10/03 10:02:02;;;;;;;15.68;5.65;;;;;;;21.42;81.56;100278.88;6026456;28;20048;-64
2023/10/03 10:05:03;;;;;;;13.82;5.45;;;;;;;21.48;81.49;100282.53;6010388;28;20445;-64
2023/10/03 10:08:08;;;;;;;17.17;6.53;;;;;;;21.49;81.39;100279.63;6018410;28;20117;-64
2023/10/03 10:11:07;;;;;;;14.45;5.97;;;;;;;21.56;80.30;100277.66;6020357;28;20030;-64
2023/10/03 10:14:09;;;;;;;14.93;5.95;;;;;;;21.64;80.36;100281.91;6020308;28;20575;-65
2023/10/03 10:17:05;;;;;;;14.70;5.30;;;;;;;21.83;80.22;100287.03;6001016;28;20042;-65
2023/10/03 10:23:35;;;;;;;13.52;5.18;;;;;;;22.43;76.58;100298.59;6008035;28;20312;-64
2023/10/03 10:26:31;;;;;;;13.43;5.65;;;;;;;22.42;75.91;100272.63;5999995;28;20367;-65
2023/10/03 10:29:28;;;;;;;11.07;5.15;;;;;;;22.20;77.20;100298.56;5998214;28;20077;-65
2023/10/03 10:32:24;;;;;;;10.88;4.82;;;;;;;22.02;78.15;100293.22;6013057;28;20516;-64
2023/10/03 10:35:49;;;;;;;12.35;4.60;;;;;;;21.85;79.40;100276.81;6006940;28;20074;-64
2023/10/03 10:38:44;;;;;;;16.30;5.05;;;;;;;21.87;79.47;100282.03;5998928;28;20070;-65
2023/10/03 10:41:41;;;;;;;10.60;4.43;;;;;;;22.08;79.82;100294.19;6016987;28;20311;-64
2023/10/03 10:45:03;;;;;;;15.25;5.07;;;;;;;22.37;78.49;100304.91;6014730;28;20057;-65
2023/10/03 10:47:58;;;;;;;9.73;4.93;;;;;;;22.41;77.79;100308.81;6011953;28;20066;-65
2023/10/03 10:51:07;;;;;;;11.80;5.10;;;;;;;22.16;78.00;100291.97;6018799;28;20085;-64
2023/10/03 10:54:04;;;;;;;10.30;4.32;;;;;;;22.14;77.74;100312.16;6023849;28;20022;-64
2023/10/03 10:57:04;;;;;;;10.95;4.47;;;;;;;22.03;77.46;100292.19;6024919;28;20091;-65
2023/10/03 10:59:59;;;;;;;7.57;3.50;;;;;;;22.10;77.09;100309.09;6020140;28;20034;-65
2023/10/03 11:02:54;;;;;;;9.27;3.27;;;;;;;22.14;75.78;100321.09;6024583;28;20031;-64
2023/10/03 11:05:55;;;;;;;9.47;3.83;;;;;;;22.48;73.63;100322.22;6024749;28;20030;-65
2023/10/03 11:08:50;;;;;;;5.50;2.33;;;;;;;22.24;70.93;100305.13;6023548;28;20041;-64
2023/10/03 11:11:46;;;;;;;6.93;2.35;;;;;;;21.91;72.21;100331.81;6016504;28;20034;-64
2023/10/03 11:14:47;;;;;;;5.30;2.20;;;;;;;21.73;73.82;100339.94;6024086;28;20026;-65
2023/10/03 11:17:48;;;;;;;6.88;2.53;;;;;;;21.43;74.66;100339.06;6024709;28;20620;-63
2023/10/03 11:20:44;;;;;;;5.97;2.35;;;;;;;21.31;76.07;100358.69;6023927;28;20046;-64
2023/10/03 11:23:39;;;;;;;5.38;2.40;;;;;;;21.29;76.63;100354.56;6025035;28;20030;-65
2023/10/03 11:26:51;;;;;;;6.93;2.63;;;;;;;21.25;77.06;100369.56;6017692;28;20078;-64
2023/10/03 11:29:47;;;;;;;7.47;2.70;;;;;;;21.03;78.38;100349.44;6016690;28;20169;-65
2023/10/03 11:32:43;;;;;;;6.73;3.20;;;;;;;20.93;80.04;100349.09;6024249;28;20027;-64
2023/10/03 11:35:39;;;;;;;5.03;2.40;;;;;;;20.85;81.25;100352.06;6044853;28;20289;-64
2023/10/03 11:38:44;;;;;;;8.32;3.30;;;;;;;20.87;83.30;100344.63;6029306;28;20065;-64
2023/10/03 11:41:39;;;;;;;6.50;3.05;;;;;;;21.04;82.45;100333.03;6028590;28;20030;-64
2023/10/03 11:44:36;;;;;;;10.23;3.17;;;;;;;21.13;81.58;100334.41;6027248;28;20474;-65
2023/10/03 11:47:31;;;;;;;8.98;3.28;;;;;;;21.04;81.86;100319.53;6027355;28;20030;-65
2023/10/03 11:50:29;;;;;;;7.40;2.97;;;;;;;21.06;81.80;100333.63;6021285;28;20044;-64
2023/10/03 11:53:24;;;;;;;6.60;3.20;;;;;;;21.02;81.71;100310.84;6010940;28;20039;-65
2023/10/03 11:56:20;;;;;;;5.57;2.93;;;;;;;21.03;80.89;100307.13;6016231;28;20042;-64
2023/10/03 11:59:15;;;;;;;8.25;3.08;;;;;;;20.84;81.49;100321.63;6014965;28;20026;-65
2023/10/03 12:02:11;;;;;;;7.93;3.63;;;;;;;20.76;82.52;100330.81;6024647;28;20054;-64
2023/10/03 12:05:07;;;;;;;7.03;3.30;;;;;;;20.78;82.78;100335.97;6020969;28;20034;-64
2023/10/03 12:08:05;;;;;;;8.73;3.65;;;;;;;20.83;81.29;100325.34;6024031;28;20042;-64
2023/10/03 12:11:01;;;;;;;9.40;3.42;;;;;;;20.82;82.23;100337.19;6021207;28;20409;-65
2023/10/03 12:13:57;;;;;;;5.53;3.05;;;;;;;20.83;82.63;100319.13;6028032;28;20034;-64
2023/10/03 12:16:52;;;;;;;6.40;3.30;;;;;;;20.75;83.10;100331.03;6028289;28;20441;-64
2023/10/03 12:19:47;;;;;;;5.80;3.40;;;;;;;20.62;84.18;100332.00;6020041;28;20030;-65
2023/10/03 12:22:45;;;;;;;10.07;3.08;;;;;;;20.58;85.44;100351.50;6027614;28;20492;-65
2023/10/03 12:25:41;;;;;;;5.40;3.00;;;;;;;20.72;85.46;100342.25;6026604;28;20023;-65
2023/10/03 12:28:36;;;;;;;7.85;3.55;;;;;;;20.69;85.31;100348.91;6027721;28;20035;-65
2023/10/03 12:31:32;;;;;;;8.83;3.50;;;;;;;20.60;85.70;100361.00;6022603;28;20030;-65
2023/10/03 12:34:29;;;;;;;5.15;3.08;;;;;;;20.51;85.68;100351.56;6024898;28;20292;-65
2023/10/03 12:37:25;;;;;;;8.02;3.53;;;;;;;20.50;86.21;100349.06;6026764;28;20033;-65
2023/10/03 12:40:22;;;;;;;5.40;3.20;;;;;;;20.47;86.99;100360.28;6027319;28;20742;-65
2023/10/03 12:43:17;;;;;;;7.38;3.40;;;;;;;20.53;86.70;100362.09;6027427;28;20030;-64
2023/10/03 12:46:14;;;;;;;5.60;3.50;;;;;;;20.42;86.69;100346.66;6026611;28;20039;-64
2023/10/03 12:49:09;;;;;;;6.82;3.10;;;;;;;20.51;84.95;100358.81;6030114;28;20021;-64
2023/10/03 12:52:04;;;;;;;9.73;3.33;;;;;;;20.51;85.41;100334.56;6026572;28;20088;-64
2023/10/03 12:55:00;;;;;;;5.93;2.80;;;;;;;20.55;84.53;100341.97;6017974;28;20031;-65
2023/10/03 12:57:58;;;;;;;8.98;2.50;;;;;;;20.59;84.65;100355.84;6024253;28;20092;-65
2023/10/03 13:00:53;;;;;;;4.93;2.10;;;;;;;20.28;84.16;100353.16;6026512;28;20066;-65
2023/10/03 13:03:48;;;;;;;6.00;2.63;;;;;;;20.09;84.99;100358.44;6027521;28;20080;-65
2023/10/03 13:06:44;;;;;;;4.23;2.17;;;;;;;20.09;85.90;100344.16;6026040;28;20068;-64
2023/10/03 13:09:43;;;;;;;5.47;2.30;;;;;;;20.12;85.87;100365.25;6028874;28;20030;-64
2023/10/03 13:12:43;;;;;;;4.70;2.38;;;;;;;19.94;87.15;100366.00;6026439;28;20454;-65
2023/10/03 13:15:38;;;;;;;5.20;2.33;;;;;;;19.94;87.86;100381.31;6020775;28;20031;-65
2023/10/03 13:18:33;;;;;;;5.60;2.73;;;;;;;19.79;89.47;100410.34;6026614;28;20042;-64
2023/10/03 13:21:29;;;;;;;4.27;1.20;;;;;;;18.76;99.04;100441.53;6031678;28;20038;-64
2023/10/03 13:24:25;;;;;;;8.23;1.63;;;;;;;17.00;100.00;100457.59;6020462;28;20294;-66
2023/10/03 13:27:21;;;;;;;5.50;1.55;;;;;;;16.41;100.00;100443.63;6022132;28;20356;-66
2023/10/03 13:30:24;;;;;;;6.10;1.70;;;;;;;16.24;100.00;100447.56;6021905;28;20039;-65
2023/10/03 13:33:20;;;;;;;4.68;1.70;;;;;;;16.03;100.00;100445.69;6014791;28;20027;-64
2023/10/03 13:36:17;;;;;;;4.95;1.77;;;;;;;16.04;100.00;100469.56;6025446;28;20037;-64